Terminal Aerodrome Forecast
Issued by NWS

Home | Current Version | Previous Version | Text Only | Print | Product List | Glossary On
Versions: 1 2 3 4 5 6 7 8 9 10 11 12 13 14 15 16 17 18 19 20 21 22 23 24 25
000
FTUS43 KDLH 172100 AAB
TAFBRD
TAF AMD
KBRD 172108Z 1721/1818 36005KT P6SM SKC
     FM181000 00000KT 4SM BR SCT008
     FM181400 VRB02KT P6SM SCT015=

USA.gov is the U.S. government's official web portal to all federal, state and local government web resources and services.